createdAt,value
2023-02-18T00:00:20.037Z,2.33
2023-02-18T00:01:23.611Z,3.33
2023-02-18T00:02:26.337Z,2.00
2023-02-18T00:03:30.371Z,2.97
2023-02-18T00:04:32.852Z,3.00
2023-02-18T00:05:35.011Z,4.33
2023-02-18T00:06:37.366Z,3.73
2023-02-18T00:07:41.200Z,2.47
2023-02-18T00:08:45.116Z,2.83
2023-02-18T00:09:47.323Z,2.83
2023-02-18T00:10:49.621Z,3.57
2023-02-18T00:11:52.782Z,3.93
2023-02-18T00:12:55.005Z,2.47
2023-02-18T00:13:59.750Z,1.40
2023-02-18T00:15:01.997Z,2.90
2023-02-18T00:16:08.885Z,3.77
2023-02-18T00:17:12.418Z,3.07
2023-02-18T00:18:14.873Z,2.53
2023-02-18T00:19:20.284Z,3.37
2023-02-18T00:20:22.432Z,3.97
2023-02-18T00:21:25.385Z,3.53
2023-02-18T00:22:28.038Z,3.43
2023-02-18T00:23:30.281Z,4.40
2023-02-18T00:24:32.438Z,2.27
2023-02-18T00:25:34.836Z,2.43
2023-02-18T00:26:37.065Z,2.90
2023-02-18T00:27:40.676Z,3.33
2023-02-18T00:28:43.502Z,3.00
2023-02-18T00:29:46.621Z,2.97
2023-02-18T00:30:48.816Z,3.20
2023-02-18T00:31:52.402Z,3.27
2023-02-18T00:32:57.281Z,2.37
2023-02-18T00:34:00.599Z,4.87
2023-02-18T00:35:03.707Z,2.77
2023-02-18T00:36:13.095Z,2.80
2023-02-18T00:37:15.540Z,3.60
2023-02-18T00:38:18.034Z,2.10
2023-02-18T00:39:20.511Z,3.07
2023-02-18T00:40:22.718Z,3.83
2023-02-18T00:41:26.464Z,2.43
2023-02-18T00:42:30.095Z,2.33
2023-02-18T00:43:32.435Z,4.20
2023-02-18T00:44:34.629Z,2.80
2023-02-18T00:45:36.823Z,3.93
2023-02-18T00:46:40.757Z,4.70
2023-02-18T00:47:43.126Z,3.30
2023-02-18T00:48:46.829Z,2.50
2023-02-18T00:49:50.004Z,3.27
2023-02-18T00:50:52.254Z,2.23
2023-02-18T00:51:54.523Z,4.50
2023-02-18T00:52:57.839Z,3.03
2023-02-18T00:54:00.148Z,3.53
2023-02-18T00:55:02.342Z,3.17
2023-02-18T00:56:05.322Z,4.00
2023-02-18T00:57:07.577Z,2.23
2023-02-18T00:58:10.516Z,3.30
2023-02-18T00:59:12.790Z,3.10
2023-02-18T01:00:15.606Z,2.40
2023-02-18T01:01:19.097Z,3.40
2023-02-18T01:02:21.384Z,2.20
2023-02-18T01:03:24.697Z,3.73
2023-02-18T01:04:26.941Z,4.00
2023-02-18T01:05:30.466Z,1.57
2023-02-18T01:06:34.138Z,2.57
2023-02-18T01:07:38.222Z,3.47
2023-02-18T01:08:42.266Z,2.83
2023-02-18T01:09:44.590Z,3.50
2023-02-18T01:10:48.578Z,3.20
2023-02-18T01:11:50.732Z,3.20
2023-02-18T01:12:52.899Z,3.10
2023-02-18T01:13:55.095Z,3.13
2023-02-18T01:14:57.231Z,3.80
2023-02-18T01:15:59.561Z,2.83
2023-02-18T01:17:01.702Z,2.70
2023-02-18T01:18:04.106Z,2.83
2023-02-18T01:19:08.574Z,2.43
2023-02-18T01:20:11.962Z,1.67
2023-02-18T01:21:14.601Z,2.40
2023-02-18T01:22:18.185Z,2.83
2023-02-18T01:23:21.015Z,3.07
2023-02-18T01:24:24.054Z,2.97
2023-02-18T01:25:28.223Z,3.83
2023-02-18T01:26:31.862Z,4.27
2023-02-18T01:27:34.022Z,1.80
2023-02-18T01:28:37.625Z,2.90
2023-02-18T01:29:42.432Z,2.03
2023-02-18T01:30:44.973Z,2.60
2023-02-18T01:31:47.838Z,2.50
2023-02-18T01:32:50.407Z,3.50
2023-02-18T01:33:52.570Z,3.30
2023-02-18T01:34:55.987Z,3.67
2023-02-18T01:35:58.296Z,2.23
2023-02-18T01:37:00.490Z,3.47
2023-02-18T01:38:02.879Z,3.40
2023-02-18T01:39:06.108Z,3.73
2023-02-18T01:40:11.767Z,3.20
2023-02-18T01:41:13.990Z,2.20
2023-02-18T01:42:22.189Z,2.93
2023-02-18T01:43:25.588Z,2.27
2023-02-18T01:44:28.933Z,2.13
2023-02-18T01:45:34.274Z,2.27
2023-02-18T01:46:36.455Z,3.50
2023-02-18T01:47:38.766Z,4.17
2023-02-18T01:48:51.786Z,2.03
2023-02-18T01:49:54.158Z,3.83
2023-02-18T01:51:09.019Z,3.03
2023-02-18T01:52:24.818Z,3.30
2023-02-18T01:53:49.527Z,4.20
2023-02-18T01:54:57.620Z,2.73
2023-02-18T01:56:03.948Z,5.57
2023-02-18T01:57:18.212Z,2.10
2023-02-18T01:58:21.484Z,3.77
2023-02-18T01:59:32.991Z,3.27
2023-02-18T02:00:37.138Z,3.13
2023-02-18T02:01:42.720Z,3.73
2023-02-18T02:02:46.977Z,2.37
2023-02-18T02:03:49.214Z,3.17
2023-02-18T02:04:52.205Z,2.70
2023-02-18T02:05:54.377Z,3.30
2023-02-18T02:06:57.555Z,3.10
2023-02-18T02:08:01.398Z,2.43
2023-02-18T02:09:07.963Z,3.03
2023-02-18T02:10:12.203Z,3.30
2023-02-18T02:11:28.228Z,3.27
2023-02-18T02:12:39.357Z,4.17
2023-02-18T02:13:52.437Z,3.10
2023-02-18T02:15:16.712Z,3.53
2023-02-18T02:16:30.143Z,4.37
2023-02-18T02:17:41.675Z,3.27
2023-02-18T02:19:05.491Z,4.33
2023-02-18T02:20:48.883Z,4.00
2023-02-18T02:22:23.741Z,3.53
2023-02-18T02:23:38.031Z,3.07
2023-02-18T02:24:50.607Z,3.70
2023-02-18T02:26:21.215Z,2.97
2023-02-18T02:27:44.433Z,2.73
2023-02-18T02:29:15.660Z,3.60
2023-02-18T02:30:49.062Z,2.93
2023-02-18T02:32:17.125Z,3.40
2023-02-18T02:33:38.385Z,3.33
2023-02-18T02:34:48.204Z,3.20
2023-02-18T02:36:11.739Z,3.23
2023-02-18T02:37:25.993Z,3.13
2023-02-18T02:38:45.608Z,4.33
2023-02-18T02:39:56.751Z,2.40
2023-02-18T02:41:21.396Z,2.60
2023-02-18T02:42:48.551Z,3.20
2023-02-18T02:44:02.320Z,3.03
2023-02-18T02:45:13.762Z,4.90
2023-02-18T02:46:29.645Z,3.03
2023-02-18T02:47:51.540Z,3.97
2023-02-18T02:49:21.463Z,2.37
2023-02-18T02:50:51.983Z,2.83
2023-02-18T02:52:21.073Z,3.07
2023-02-18T02:53:27.681Z,4.43
2023-02-18T02:54:30.168Z,3.80
2023-02-18T02:55:32.569Z,4.53
2023-02-18T02:56:34.864Z,4.00
2023-02-18T02:57:39.752Z,2.67
2023-02-18T02:58:59.746Z,5.00
2023-02-18T03:00:08.631Z,3.50
2023-02-18T03:01:58.626Z,2.53
2023-02-18T03:03:14.733Z,3.73
2023-02-18T03:04:26.799Z,5.73
2023-02-18T03:05:48.413Z,2.70
2023-02-18T03:07:20.820Z,2.43
2023-02-18T03:08:41.149Z,5.90
2023-02-18T03:09:54.262Z,2.30
2023-02-18T03:11:03.994Z,3.87
2023-02-18T03:12:17.116Z,4.87
2023-02-18T03:14:11.671Z,3.93
2023-02-18T03:15:32.938Z,1.80
2023-02-18T03:16:53.510Z,3.57
2023-02-18T03:18:08.530Z,3.47
2023-02-18T03:19:29.872Z,3.80
2023-02-18T03:20:37.360Z,3.23
2023-02-18T03:21:51.896Z,3.03
2023-02-18T03:22:57.406Z,3.33
2023-02-18T03:24:08.972Z,4.13
2023-02-18T03:25:13.161Z,3.30
2023-02-18T03:26:18.957Z,5.67
2023-02-18T03:27:59.673Z,3.53
2023-02-18T03:29:05.116Z,3.23
2023-02-18T03:30:10.940Z,3.00
2023-02-18T03:31:18.546Z,3.13
2023-02-18T03:32:25.579Z,4.73
2023-02-18T03:33:37.719Z,3.97
2023-02-18T03:34:46.069Z,2.30
2023-02-18T03:35:51.430Z,3.83
2023-02-18T03:36:55.586Z,3.43
2023-02-18T03:38:07.104Z,4.60
2023-02-18T03:39:30.268Z,5.20
2023-02-18T03:40:32.915Z,3.60
2023-02-18T03:41:37.191Z,3.23
2023-02-18T03:42:39.483Z,3.50
2023-02-18T03:43:50.204Z,4.87
2023-02-18T03:44:52.445Z,1.93
2023-02-18T03:45:56.912Z,4.67
2023-02-18T03:47:01.038Z,4.00
2023-02-18T03:48:03.499Z,6.53
2023-02-18T03:49:06.214Z,4.07
2023-02-18T03:50:08.925Z,3.73
2023-02-18T03:51:11.483Z,2.77
2023-02-18T03:52:13.757Z,6.73
2023-02-18T03:53:17.466Z,3.87
2023-02-18T03:54:20.461Z,3.63
2023-02-18T03:55:23.259Z,4.07
2023-02-18T03:56:25.499Z,3.20
2023-02-18T03:57:27.656Z,5.50
2023-02-18T03:58:29.859Z,2.33
2023-02-18T03:59:32.159Z,4.77
2023-02-18T04:00:34.434Z,4.37
2023-02-18T04:01:37.390Z,3.20
2023-02-18T04:02:40.061Z,4.23
2023-02-18T04:03:42.499Z,3.67
2023-02-18T04:04:44.746Z,4.43
2023-02-18T04:05:48.196Z,5.43
2023-02-18T04:06:50.712Z,3.97
2023-02-18T04:07:52.986Z,3.53
2023-02-18T04:08:55.553Z,3.43
2023-02-18T04:09:57.698Z,3.33
2023-02-18T04:11:00.044Z,4.27
2023-02-18T04:12:02.190Z,3.03
2023-02-18T04:13:05.314Z,3.73
2023-02-18T04:14:08.330Z,4.80
2023-02-18T04:15:10.543Z,3.33
2023-02-18T04:16:12.923Z,4.40
2023-02-18T04:17:15.121Z,4.87
2023-02-18T04:18:17.423Z,3.77
2023-02-18T04:19:19.716Z,5.33
2023-02-18T04:20:22.710Z,4.93
2023-02-18T04:21:25.922Z,2.10
2023-02-18T04:22:28.137Z,3.17
2023-02-18T04:23:30.736Z,4.37
2023-02-18T04:24:32.952Z,5.37
2023-02-18T04:25:35.742Z,4.97
2023-02-18T04:26:39.329Z,3.90
2023-02-18T04:27:42.093Z,3.23
2023-02-18T04:28:44.474Z,3.40
2023-02-18T04:29:46.712Z,4.87
2023-02-18T04:30:49.491Z,3.37
2023-02-18T04:31:51.863Z,3.27
2023-02-18T04:32:54.189Z,3.80
2023-02-18T04:33:56.626Z,3.93
2023-02-18T04:34:58.800Z,2.57
2023-02-18T04:36:01.040Z,3.23
2023-02-18T04:37:03.277Z,4.03
2023-02-18T04:38:05.453Z,4.07
2023-02-18T04:39:07.851Z,4.90
2023-02-18T04:40:11.026Z,3.83
2023-02-18T04:41:13.480Z,5.33
2023-02-18T04:42:15.757Z,4.87
2023-02-18T04:43:17.922Z,3.90
2023-02-18T04:44:20.072Z,5.47
2023-02-18T04:45:22.578Z,4.17
2023-02-18T04:46:24.815Z,4.53
2023-02-18T04:47:27.355Z,4.97
2023-02-18T04:48:29.546Z,4.80
2023-02-18T04:49:31.919Z,4.20
2023-02-18T04:50:34.337Z,5.40
2023-02-18T04:51:38.235Z,4.33
2023-02-18T04:52:40.420Z,5.73
2023-02-18T04:53:43.992Z,3.93
2023-02-18T04:54:46.426Z,3.40
2023-02-18T04:55:52.776Z,3.67
2023-02-18T04:56:55.075Z,3.60
2023-02-18T04:57:57.307Z,4.07
2023-02-18T04:58:59.963Z,5.00
2023-02-18T05:00:03.768Z,3.70
2023-02-18T05:01:06.270Z,4.43
2023-02-18T05:02:08.524Z,5.30
2023-02-18T05:03:10.806Z,4.27
2023-02-18T05:04:13.082Z,7.70
2023-02-18T05:05:15.999Z,5.50
2023-02-18T05:06:19.231Z,4.57
2023-02-18T05:07:22.674Z,5.77
2023-02-18T05:08:24.998Z,4.70
2023-02-18T05:09:28.694Z,5.87
2023-02-18T05:10:31.084Z,3.80
2023-02-18T05:11:34.856Z,4.07
2023-02-18T05:12:37.151Z,5.20
2023-02-18T05:13:39.473Z,5.47
2023-02-18T05:14:41.766Z,3.47
2023-02-18T05:15:44.052Z,4.50
2023-02-18T05:16:46.481Z,4.53
2023-02-18T05:17:49.014Z,3.93
2023-02-18T05:18:51.187Z,4.63
2023-02-18T05:19:53.385Z,4.17
2023-02-18T05:20:55.679Z,3.57
2023-02-18T05:21:57.948Z,5.97
2023-02-18T05:23:00.135Z,4.70
2023-02-18T05:24:02.396Z,3.90
2023-02-18T05:25:04.967Z,4.40
2023-02-18T05:26:07.499Z,5.40
2023-02-18T05:27:09.851Z,6.03
2023-02-18T05:28:12.121Z,5.37
2023-02-18T05:29:15.858Z,4.20
2023-02-18T05:30:18.565Z,4.07
2023-02-18T05:31:20.844Z,4.63
2023-02-18T05:32:23.722Z,4.00
2023-02-18T05:33:25.924Z,5.27
2023-02-18T05:34:28.114Z,5.53
2023-02-18T05:35:30.361Z,4.23
2023-02-18T05:36:32.731Z,5.20
2023-02-18T05:37:35.212Z,5.53
2023-02-18T05:38:37.459Z,4.63
2023-02-18T05:39:41.277Z,5.07
2023-02-18T05:40:43.738Z,4.77
2023-02-18T05:41:45.868Z,6.07
2023-02-18T05:42:48.960Z,4.50
2023-02-18T05:44:11.482Z,5.97
2023-02-18T05:45:13.866Z,7.27
2023-02-18T05:46:16.107Z,6.47
2023-02-18T05:47:18.314Z,3.73
2023-02-18T05:48:20.515Z,6.73
2023-02-18T05:49:22.709Z,4.60
2023-02-18T05:50:25.142Z,4.07
2023-02-18T05:51:27.404Z,3.43
2023-02-18T05:52:29.732Z,5.20
2023-02-18T05:53:33.074Z,5.67
2023-02-18T05:54:37.681Z,5.33
2023-02-18T05:55:39.863Z,5.33
2023-02-18T05:56:42.175Z,4.97
2023-02-18T05:57:44.685Z,5.23
2023-02-18T05:58:47.353Z,8.57
2023-02-18T05:59:49.588Z,6.60
2023-02-18T06:00:51.991Z,6.63
2023-02-18T06:01:55.036Z,4.53
2023-02-18T06:02:58.122Z,5.40
2023-02-18T06:04:00.358Z,4.87
2023-02-18T06:05:02.918Z,5.87
2023-02-18T06:06:05.694Z,5.43
2023-02-18T06:07:07.954Z,4.53
2023-02-18T06:08:10.171Z,5.33
2023-02-18T06:09:12.595Z,6.00
2023-02-18T06:10:14.863Z,6.70
2023-02-18T06:11:17.172Z,6.17
2023-02-18T06:12:19.740Z,6.47
2023-02-18T06:13:22.137Z,4.67
2023-02-18T06:14:25.182Z,5.43
2023-02-18T06:15:27.441Z,4.47
2023-02-18T06:16:30.261Z,5.90
2023-02-18T06:17:32.796Z,6.17
2023-02-18T06:18:35.068Z,4.77
2023-02-18T06:19:37.573Z,6.63
2023-02-18T06:20:41.045Z,5.63
2023-02-18T06:21:43.446Z,4.40
2023-02-18T06:22:45.688Z,6.63
2023-02-18T06:23:48.006Z,6.47
2023-02-18T06:24:50.206Z,5.50
2023-02-18T06:25:52.439Z,5.77
2023-02-18T06:26:55.103Z,4.80
2023-02-18T06:27:57.356Z,6.67
2023-02-18T06:29:01.045Z,6.43
2023-02-18T06:30:03.978Z,6.10
2023-02-18T06:31:06.273Z,6.43
2023-02-18T06:32:08.627Z,5.23
2023-02-18T06:33:12.310Z,7.90
2023-02-18T06:34:14.488Z,5.87
2023-02-18T06:35:16.733Z,6.30
2023-02-18T06:36:19.404Z,6.57
2023-02-18T06:37:21.656Z,5.53
2023-02-18T06:38:24.032Z,7.87
2023-02-18T06:39:26.322Z,6.17
2023-02-18T06:40:28.538Z,6.23
2023-02-18T06:41:30.737Z,6.87
2023-02-18T06:42:32.936Z,7.73
2023-02-18T06:43:35.798Z,7.30
2023-02-18T06:44:38.217Z,6.77
2023-02-18T06:45:40.905Z,4.77
2023-02-18T06:46:43.129Z,6.67
2023-02-18T06:47:45.441Z,6.63
2023-02-18T06:48:48.560Z,7.57
2023-02-18T06:49:51.245Z,5.60
2023-02-18T06:50:53.532Z,5.70
2023-02-18T06:51:56.195Z,7.57
2023-02-18T06:52:59.738Z,7.97
2023-02-18T06:54:02.734Z,7.47
2023-02-18T06:55:06.181Z,7.90
2023-02-18T06:56:08.625Z,7.63
2023-02-18T06:57:11.148Z,6.57
2023-02-18T06:58:14.464Z,7.17
2023-02-18T06:59:16.975Z,8.10
2023-02-18T07:00:19.585Z,7.07
2023-02-18T07:01:24.795Z,7.57
2023-02-18T07:02:27.031Z,7.10
2023-02-18T07:03:29.830Z,6.20
2023-02-18T07:04:32.092Z,8.83
2023-02-18T07:05:34.806Z,6.67
2023-02-18T07:06:37.661Z,8.20
2023-02-18T07:07:39.895Z,7.80
2023-02-18T07:08:42.292Z,8.63
2023-02-18T07:09:44.468Z,6.33
2023-02-18T07:10:47.610Z,7.20
2023-02-18T07:11:49.883Z,7.40
2023-02-18T07:12:52.169Z,10.40
2023-02-18T07:13:54.404Z,6.63
2023-02-18T07:14:56.611Z,7.60
2023-02-18T07:15:59.678Z,7.00
2023-02-18T07:17:01.853Z,6.93
2023-02-18T07:18:04.252Z,7.60
2023-02-18T07:19:06.762Z,7.07
2023-02-18T07:20:10.311Z,7.53
2023-02-18T07:21:12.594Z,7.17
2023-02-18T07:22:14.830Z,7.50
2023-02-18T07:23:17.025Z,7.60
2023-02-18T07:24:20.361Z,8.93
2023-02-18T07:25:23.528Z,7.13
2023-02-18T07:26:25.839Z,8.20
2023-02-18T07:27:27.985Z,8.10
2023-02-18T07:28:30.581Z,8.20
2023-02-18T07:29:32.758Z,7.40
2023-02-18T07:30:35.161Z,8.33
2023-02-18T07:31:39.171Z,6.83
2023-02-18T07:32:42.736Z,8.73
2023-02-18T07:33:44.952Z,8.60
2023-02-18T07:34:47.133Z,7.03
2023-02-18T07:35:57.344Z,7.17
2023-02-18T07:36:59.555Z,7.50
2023-02-18T07:38:03.329Z,7.80
2023-02-18T07:39:05.527Z,6.80
2023-02-18T07:40:10.569Z,6.77
2023-02-18T07:41:23.107Z,7.33
2023-02-18T07:42:25.538Z,7.53
2023-02-18T07:43:27.731Z,7.97
2023-02-18T07:44:31.848Z,7.93
2023-02-18T07:45:34.108Z,7.23
2023-02-18T07:46:40.680Z,8.07
2023-02-18T07:47:43.163Z,8.13
2023-02-18T07:48:45.426Z,7.17
2023-02-18T07:49:47.947Z,9.00
2023-02-18T07:50:50.305Z,7.73
2023-02-18T07:51:52.602Z,7.83
2023-02-18T07:52:54.841Z,7.80
2023-02-18T07:53:57.047Z,9.83
2023-02-18T07:54:59.333Z,6.90
2023-02-18T07:56:02.561Z,9.17
2023-02-18T07:57:05.102Z,8.10
2023-02-18T07:58:07.295Z,8.27
2023-02-18T07:59:10.063Z,7.07
2023-02-18T08:00:13.204Z,7.07
2023-02-18T08:01:16.369Z,6.63
2023-02-18T08:02:22.002Z,7.70
2023-02-18T08:03:30.143Z,7.13
2023-02-18T08:04:32.903Z,8.63
2023-02-18T08:05:35.069Z,6.87
2023-02-18T08:06:39.907Z,6.80
2023-02-18T08:07:42.249Z,6.93
2023-02-18T08:08:44.959Z,6.60
2023-02-18T08:09:49.216Z,8.20
2023-02-18T08:10:53.345Z,7.20
2023-02-18T08:11:55.583Z,6.57
2023-02-18T08:12:58.813Z,7.33
2023-02-18T08:14:01.458Z,7.17
2023-02-18T08:15:04.041Z,7.50
2023-02-18T08:16:06.825Z,6.97
2023-02-18T08:17:09.195Z,7.73
2023-02-18T08:18:20.242Z,6.43
2023-02-18T08:19:22.438Z,7.57
2023-02-18T08:20:25.865Z,5.93
2023-02-18T08:21:29.324Z,6.73
2023-02-18T08:22:31.661Z,7.93
2023-02-18T08:23:33.956Z,8.23
2023-02-18T08:24:36.144Z,7.20
2023-02-18T08:25:38.448Z,6.80
2023-02-18T08:26:54.308Z,7.47
2023-02-18T08:28:01.930Z,7.67
2023-02-18T08:29:05.569Z,7.57
2023-02-18T08:30:08.571Z,6.97
2023-02-18T08:31:26.113Z,6.40
2023-02-18T08:32:29.155Z,6.90
2023-02-18T08:33:31.719Z,7.43
2023-02-18T08:34:33.972Z,8.20
2023-02-18T08:35:36.119Z,7.83
2023-02-18T08:36:38.276Z,8.33
2023-02-18T08:37:52.931Z,7.57
2023-02-18T08:38:57.914Z,7.50
2023-02-18T08:40:02.212Z,7.87
2023-02-18T08:41:06.239Z,6.50
2023-02-18T08:42:08.609Z,7.53
2023-02-18T08:43:11.066Z,6.70
2023-02-18T08:44:13.408Z,7.47
2023-02-18T08:45:15.712Z,7.07
2023-02-18T08:46:24.995Z,7.63
2023-02-18T08:48:18.755Z,7.10
2023-02-18T08:48:59.390Z,6.80
2023-02-18T08:50:01.604Z,7.10
2023-02-18T08:51:18.009Z,6.90
2023-02-18T08:52:20.480Z,8.57
2023-02-18T08:53:22.931Z,6.93
2023-02-18T08:54:25.319Z,7.13
2023-02-18T08:55:27.753Z,7.90
2023-02-18T08:56:31.822Z,7.30
2023-02-18T08:57:35.077Z,6.50
2023-02-18T08:58:37.690Z,7.57
2023-02-18T08:59:39.876Z,8.50
2023-02-18T09:00:43.416Z,7.83
2023-02-18T09:01:46.698Z,6.37
2023-02-18T09:02:48.894Z,5.80
2023-02-18T09:03:51.407Z,5.90
2023-02-18T09:04:53.612Z,6.07
2023-02-18T09:05:56.969Z,6.43
2023-02-18T09:06:59.283Z,6.50
2023-02-18T09:08:01.520Z,5.90
2023-02-18T09:09:04.624Z,7.40
2023-02-18T09:10:08.675Z,6.10
2023-02-18T09:11:11.401Z,7.20
2023-02-18T09:12:13.796Z,6.40
2023-02-18T09:13:18.104Z,6.33
2023-02-18T09:14:20.269Z,8.60
2023-02-18T09:15:22.555Z,10.03
2023-02-18T09:16:26.324Z,10.40
2023-02-18T09:17:29.278Z,10.40
2023-02-18T09:18:32.775Z,9.43
2023-02-18T09:19:34.922Z,9.20
2023-02-18T09:20:40.722Z,8.63
2023-02-18T09:21:44.308Z,10.13
2023-02-18T09:22:47.764Z,7.53
2023-02-18T09:23:52.047Z,8.10
2023-02-18T09:24:54.308Z,9.70
2023-02-18T09:25:58.699Z,8.17
2023-02-18T09:27:00.938Z,9.40
2023-02-18T09:28:03.423Z,10.30
2023-02-18T09:29:05.596Z,8.90
2023-02-18T09:30:08.778Z,8.80
2023-02-18T09:31:18.587Z,9.03
2023-02-18T09:32:33.735Z,8.10
2023-02-18T09:33:38.051Z,9.40
2023-02-18T09:34:41.566Z,7.67
2023-02-18T09:35:46.116Z,7.30
2023-02-18T09:36:48.300Z,8.73
2023-02-18T09:37:50.458Z,8.17
2023-02-18T09:38:53.358Z,8.63
2023-02-18T09:39:55.617Z,9.07
2023-02-18T09:40:59.581Z,8.43
2023-02-18T09:42:05.789Z,8.43
2023-02-18T09:43:19.649Z,9.47
2023-02-18T09:44:27.232Z,8.60
2023-02-18T09:45:30.284Z,8.93
2023-02-18T09:46:36.578Z,8.37
2023-02-18T09:47:42.688Z,8.27
2023-02-18T09:48:47.000Z,7.50
2023-02-18T09:49:54.534Z,8.80
2023-02-18T09:50:57.309Z,8.03
2023-02-18T09:52:11.037Z,6.57
2023-02-18T09:53:13.690Z,4.27
2023-02-18T09:54:18.931Z,2.87
2023-02-18T09:55:30.341Z,3.13
2023-02-18T09:56:35.717Z,1.63
2023-02-18T09:57:53.445Z,1.50
2023-02-18T09:58:58.646Z,1.40
2023-02-18T10:00:06.426Z,1.40
2023-02-18T10:01:32.782Z,1.97
2023-02-18T10:02:40.957Z,1.20
2023-02-18T10:03:44.506Z,1.10
2023-02-18T10:04:52.258Z,1.40
2023-02-18T10:06:12.975Z,1.30
2023-02-18T10:07:26.401Z,2.00
2023-02-18T10:08:36.202Z,1.30
2023-02-18T10:09:41.936Z,1.33
2023-02-18T10:10:46.541Z,1.07
2023-02-18T10:11:52.451Z,1.33
2023-02-18T10:12:55.719Z,1.40
2023-02-18T10:14:04.305Z,1.53
2023-02-18T10:15:19.579Z,1.60
2023-02-18T10:16:23.454Z,1.27
2023-02-18T10:17:28.534Z,2.43
2023-02-18T10:18:43.458Z,1.10
2023-02-18T10:19:48.637Z,1.30
2023-02-18T10:20:53.088Z,1.67
2023-02-18T10:21:56.288Z,0.90
2023-02-18T10:23:03.235Z,1.20
2023-02-18T10:24:44.503Z,1.17
2023-02-18T10:25:49.463Z,1.90
2023-02-18T10:26:51.791Z,1.63
2023-02-18T10:27:54.341Z,1.20
2023-02-18T10:28:57.499Z,1.17
2023-02-18T10:30:45.967Z,1.30
2023-02-18T10:32:11.926Z,0.90
2023-02-18T10:33:35.678Z,0.80
2023-02-18T10:34:42.309Z,1.20
2023-02-18T10:36:03.062Z,0.97
2023-02-18T10:37:46.547Z,0.90
2023-02-18T10:39:10.473Z,1.10
2023-02-18T10:40:34.492Z,1.10
2023-02-18T10:42:07.233Z,1.10
2023-02-18T10:43:28.193Z,1.00
2023-02-18T10:45:08.217Z,1.20
2023-02-18T10:46:27.453Z,1.73
2023-02-18T10:47:46.387Z,1.50
2023-02-18T10:49:09.487Z,1.10
2023-02-18T10:50:26.900Z,1.53
2023-02-18T10:51:35.500Z,0.73
2023-02-18T10:52:44.599Z,1.00
2023-02-18T10:53:49.633Z,0.80
2023-02-18T10:54:57.786Z,1.57
2023-02-18T10:56:00.392Z,0.83
2023-02-18T10:57:04.893Z,0.80
2023-02-18T10:58:27.887Z,1.07
2023-02-18T10:59:33.759Z,1.10
2023-02-18T11:00:40.363Z,1.30
2023-02-18T11:01:46.686Z,1.00
2023-02-18T11:03:03.850Z,0.97
2023-02-18T11:04:16.071Z,0.90
2023-02-18T11:05:25.862Z,1.20
2023-02-18T11:06:33.007Z,0.70
2023-02-18T11:07:38.342Z,1.63
2023-02-18T11:08:46.976Z,0.63
2023-02-18T11:09:52.885Z,0.80
2023-02-18T11:10:56.443Z,0.87
2023-02-18T11:12:08.302Z,0.70
2023-02-18T11:13:15.240Z,0.70
2023-02-18T11:14:38.141Z,0.77
2023-02-18T11:15:58.388Z,0.70
2023-02-18T11:17:10.036Z,2.63
2023-02-18T11:18:26.760Z,0.80
2023-02-18T11:19:37.493Z,1.23
2023-02-18T11:20:40.233Z,0.83
2023-02-18T11:21:42.499Z,0.70
2023-02-18T11:22:44.795Z,0.60
2023-02-18T11:23:50.466Z,0.70
2023-02-18T11:25:01.155Z,0.80
2023-02-18T11:26:06.793Z,0.70
2023-02-18T11:27:14.262Z,0.87
2023-02-18T11:28:16.982Z,0.80
2023-02-18T11:29:25.547Z,0.80
2023-02-18T11:30:39.798Z,0.60
2023-02-18T11:31:48.227Z,0.53
2023-02-18T11:32:55.594Z,0.67
2023-02-18T11:34:01.266Z,0.60
2023-02-18T11:35:05.264Z,1.17
2023-02-18T11:36:31.364Z,0.60
2023-02-18T11:37:35.754Z,0.50
2023-02-18T11:38:46.345Z,0.60
2023-02-18T11:39:51.970Z,0.70
2023-02-18T11:41:10.355Z,0.83
2023-02-18T11:42:19.738Z,0.50
2023-02-18T11:43:22.465Z,1.03
2023-02-18T11:44:32.967Z,0.60
2023-02-18T11:45:35.735Z,1.50
2023-02-18T11:46:37.915Z,1.00
2023-02-18T11:47:40.180Z,1.03
2023-02-18T11:48:42.725Z,0.70
2023-02-18T11:50:00.424Z,0.57
2023-02-18T11:51:04.385Z,0.40
2023-02-18T11:52:20.230Z,0.80
2023-02-18T11:53:54.095Z,0.80
2023-02-18T11:55:27.921Z,0.60
2023-02-18T11:56:33.279Z,0.50
2023-02-18T11:57:38.761Z,0.53
2023-02-18T11:58:44.319Z,0.50
2023-02-18T11:59:46.563Z,0.57
2023-02-18T12:00:53.410Z,0.70
2023-02-18T12:02:10.711Z,0.60
2023-02-18T12:03:22.819Z,0.43
2023-02-18T12:04:31.712Z,0.60
2023-02-18T12:05:34.808Z,0.60
2023-02-18T12:06:51.070Z,0.60
2023-02-18T12:08:01.664Z,0.60
2023-02-18T12:09:20.761Z,0.57
2023-02-18T12:10:35.015Z,0.50
2023-02-18T12:11:42.432Z,0.70
2023-02-18T12:13:24.068Z,0.80
2023-02-18T12:14:26.302Z,1.23
2023-02-18T12:15:35.782Z,0.90
2023-02-18T12:16:46.812Z,0.90
2023-02-18T12:18:16.392Z,1.10
2023-02-18T12:19:45.539Z,0.90
2023-02-18T12:21:21.507Z,1.00
2023-02-18T12:22:32.990Z,1.33
2023-02-18T12:23:47.888Z,1.10
2023-02-18T12:25:13.806Z,1.00
2023-02-18T12:26:52.971Z,1.10
2023-02-18T12:28:32.853Z,1.30
2023-02-18T12:29:56.728Z,1.10
2023-02-18T12:31:14.214Z,0.90
2023-02-18T12:32:54.747Z,1.53
2023-02-18T12:34:03.057Z,1.77
2023-02-18T12:35:34.409Z,2.87
2023-02-18T12:36:54.907Z,1.30
2023-02-18T12:38:27.902Z,1.70
2023-02-18T12:39:40.162Z,1.10
2023-02-18T12:41:05.840Z,1.20
2023-02-18T12:42:26.716Z,1.10
2023-02-18T12:43:55.654Z,1.30
2023-02-18T12:45:21.094Z,1.27
2023-02-18T12:46:40.890Z,1.50
2023-02-18T12:48:04.824Z,1.10
2023-02-18T12:49:26.596Z,1.63
2023-02-18T12:50:58.625Z,1.00
2023-02-18T12:52:11.673Z,1.07
2023-02-18T12:53:26.928Z,1.30
2023-02-18T12:54:36.407Z,1.23
2023-02-18T12:56:20.406Z,1.27
2023-02-18T12:57:43.384Z,1.00
2023-02-18T12:59:16.215Z,1.20
2023-02-18T13:00:54.105Z,1.10
2023-02-18T13:02:17.447Z,1.00
2023-02-18T13:03:37.512Z,1.20
2023-02-18T13:05:06.000Z,1.20
2023-02-18T13:06:37.491Z,1.23
2023-02-18T13:07:51.136Z,1.20
2023-02-18T13:09:08.216Z,1.20
2023-02-18T13:10:28.415Z,1.20
2023-02-18T13:12:08.711Z,1.27
2023-02-18T13:13:19.628Z,1.40
2023-02-18T13:14:39.020Z,1.90
2023-02-18T13:15:48.782Z,1.13
2023-02-18T13:16:58.273Z,1.20
2023-02-18T13:18:05.720Z,0.90
2023-02-18T13:19:20.728Z,1.47
2023-02-18T13:20:39.073Z,1.10
2023-02-18T13:21:44.947Z,1.03
2023-02-18T13:22:52.355Z,1.73
2023-02-18T13:24:13.558Z,1.20
2023-02-18T13:25:17.224Z,0.77
2023-02-18T13:26:21.601Z,0.90
2023-02-18T13:27:39.771Z,0.80
2023-02-18T13:28:49.184Z,1.13
2023-02-18T13:30:19.135Z,0.90
2023-02-18T13:31:52.744Z,0.83
2023-02-18T13:32:58.063Z,1.00
2023-02-18T13:34:13.376Z,0.80
2023-02-18T13:35:25.698Z,1.90
2023-02-18T13:36:45.934Z,1.13
2023-02-18T13:38:06.127Z,0.80
2023-02-18T13:39:11.190Z,0.80
2023-02-18T13:40:23.614Z,0.80
2023-02-18T13:41:27.733Z,0.83
2023-02-18T13:42:29.959Z,0.90
2023-02-18T13:43:34.366Z,0.80
2023-02-18T13:44:39.337Z,0.83
2023-02-18T13:45:41.849Z,0.90
2023-02-18T13:46:52.633Z,0.90
2023-02-18T13:47:55.576Z,0.80
2023-02-18T13:49:07.289Z,0.67
2023-02-18T13:50:24.172Z,0.60
2023-02-18T13:51:46.534Z,1.00
2023-02-18T13:52:49.928Z,1.03
2023-02-18T13:53:55.138Z,0.80
2023-02-18T13:54:57.728Z,1.00
2023-02-18T13:56:17.573Z,1.10
2023-02-18T13:57:27.000Z,1.00
2023-02-18T13:58:49.317Z,0.93
2023-02-18T13:59:58.184Z,1.10
2023-02-18T14:01:12.439Z,1.13
2023-02-18T14:02:24.988Z,0.90
2023-02-18T14:03:36.296Z,0.87
2023-02-18T14:04:40.091Z,1.00
2023-02-18T14:05:42.524Z,1.00
2023-02-18T14:07:22.566Z,2.47
2023-02-18T14:08:39.122Z,1.13
2023-02-18T14:09:44.906Z,0.77
2023-02-18T14:11:15.202Z,0.83
2023-02-18T14:12:30.863Z,0.77
2023-02-18T14:13:55.293Z,2.57
2023-02-18T14:15:00.779Z,0.70
2023-02-18T14:16:03.476Z,0.70
2023-02-18T14:17:21.456Z,1.20
2023-02-18T14:18:54.218Z,1.10
2023-02-18T14:20:19.287Z,0.97
2023-02-18T14:21:34.977Z,0.90
2023-02-18T14:22:41.386Z,1.63
2023-02-18T14:23:59.784Z,1.07
2023-02-18T14:25:37.224Z,0.67
2023-02-18T14:26:45.217Z,1.50
2023-02-18T14:27:52.926Z,0.87
2023-02-18T14:28:59.980Z,1.20
2023-02-18T14:30:16.429Z,1.17
2023-02-18T14:31:36.820Z,0.80
2023-02-18T14:32:40.213Z,0.90
2023-02-18T14:33:52.981Z,1.63
2023-02-18T14:35:08.827Z,0.70
2023-02-18T14:36:16.690Z,1.17
2023-02-18T14:37:47.845Z,0.80
2023-02-18T14:38:59.423Z,1.03
2023-02-18T14:40:24.993Z,0.90
2023-02-18T14:41:34.559Z,0.90
2023-02-18T14:42:56.806Z,0.70
2023-02-18T14:44:32.867Z,0.70
2023-02-18T14:46:02.498Z,1.63
2023-02-18T14:47:26.652Z,1.47
2023-02-18T14:48:43.878Z,1.23
2023-02-18T14:49:50.722Z,0.70
2023-02-18T14:50:53.665Z,2.00
2023-02-18T14:51:59.605Z,0.80
2023-02-18T14:53:08.447Z,0.70
2023-02-18T14:54:17.803Z,0.87
2023-02-18T14:55:25.699Z,1.00
2023-02-18T14:56:28.002Z,1.07
2023-02-18T14:57:40.424Z,0.70
2023-02-18T14:58:49.381Z,2.70
2023-02-18T14:59:59.129Z,0.70
2023-02-18T15:01:18.142Z,0.50
2023-02-18T15:02:24.056Z,0.87
2023-02-18T15:03:29.568Z,1.13
2023-02-18T15:04:31.811Z,1.90
2023-02-18T15:05:38.622Z,0.60
2023-02-18T15:06:41.140Z,0.50